createdAt,value
2022-12-18T00:01:35.610Z,98865.16
2022-12-18T00:04:11.177Z,98865.08
2022-12-18T00:06:37.850Z,98863.11
2022-12-18T00:09:04.542Z,98869.40
2022-12-18T00:11:31.600Z,98872.53
2022-12-18T00:13:59.749Z,98878.77
2022-12-18T00:16:27.367Z,98885.95
2022-12-18T00:18:55.172Z,98887.00
2022-12-18T00:21:22.291Z,98891.08
2022-12-18T00:23:49.746Z,98898.54
2022-12-18T00:26:26.766Z,98895.91
2022-12-18T00:28:56.005Z,98894.93
2022-12-18T00:31:24.733Z,98899.95
2022-12-18T00:33:55.168Z,98896.98
2022-12-18T00:36:24.726Z,98896.54
2022-12-18T00:38:53.303Z,98900.46
2022-12-18T00:41:38.634Z,98901.66
2022-12-18T00:44:06.400Z,98904.16
2022-12-18T00:46:33.031Z,98907.81
2022-12-18T00:48:59.773Z,98910.10
2022-12-18T00:51:27.062Z,98912.31
2022-12-18T00:53:53.592Z,98914.39
2022-12-18T00:56:23.046Z,98921.08
2022-12-18T00:58:49.655Z,98919.90
2022-12-18T01:01:16.966Z,98923.31
2022-12-18T01:03:45.557Z,98926.94
2022-12-18T01:06:13.293Z,98924.36
2022-12-18T01:08:39.909Z,98920.48
2022-12-18T01:11:10.575Z,98921.84
2022-12-18T01:13:38.309Z,98920.60
2022-12-18T01:16:05.900Z,98921.18
2022-12-18T01:18:35.482Z,98923.23
2022-12-18T01:21:06.280Z,98921.46
2022-12-18T01:23:33.144Z,98919.25
2022-12-18T01:26:12.230Z,98926.17
2022-12-18T01:28:39.488Z,98926.58
2022-12-18T01:31:16.841Z,98929.52
2022-12-18T01:33:43.821Z,98932.46
2022-12-18T01:36:15.455Z,98936.91
2022-12-18T01:38:42.294Z,98935.75
2022-12-18T01:41:08.897Z,98931.41
2022-12-18T01:43:42.914Z,98932.42
2022-12-18T01:46:09.760Z,98934.58
2022-12-18T01:48:36.971Z,98940.29
2022-12-18T01:51:05.153Z,98937.71
2022-12-18T01:53:32.196Z,98937.42
2022-12-18T01:55:59.220Z,98934.80
2022-12-18T01:58:45.971Z,98946.77
2022-12-18T02:01:13.048Z,98958.27
2022-12-18T02:03:41.806Z,98959.23
2022-12-18T02:06:21.350Z,98959.14
2022-12-18T02:08:58.636Z,98960.86
2022-12-18T02:11:25.237Z,98962.33
2022-12-18T02:13:51.730Z,98961.77
2022-12-18T02:16:30.375Z,98964.33
2022-12-18T02:18:59.619Z,98968.65
2022-12-18T02:21:37.255Z,98980.23
2022-12-18T02:24:06.886Z,98985.98
2022-12-18T02:26:38.301Z,98985.23
2022-12-18T02:29:17.132Z,98982.23
2022-12-18T02:31:47.488Z,98985.73
2022-12-18T02:34:15.347Z,98990.82
2022-12-18T02:36:44.482Z,98990.88
2022-12-18T02:39:12.089Z,98993.97
2022-12-18T02:41:42.365Z,98997.33
2022-12-18T02:44:10.756Z,99002.73
2022-12-18T02:46:42.898Z,99008.32
2022-12-18T02:49:11.831Z,99008.27
2022-12-18T02:52:01.612Z,99013.90
2022-12-18T02:54:31.485Z,99018.91
2022-12-18T02:57:03.760Z,99025.15
2022-12-18T02:59:45.338Z,99034.61
2022-12-18T03:02:24.571Z,99035.28
2022-12-18T03:04:59.500Z,99038.44
2022-12-18T03:07:28.549Z,99045.16
2022-12-18T03:09:56.815Z,99052.09
2022-12-18T03:12:28.986Z,99050.65
2022-12-18T03:15:15.961Z,99054.80
2022-12-18T03:17:47.192Z,99057.61
2022-12-18T03:20:15.571Z,99067.13
2022-12-18T03:22:43.631Z,99066.13
2022-12-18T03:25:13.390Z,99072.89
2022-12-18T03:27:42.723Z,99075.48
2022-12-18T03:30:12.776Z,99082.13
2022-12-18T03:32:50.976Z,99087.57
2022-12-18T03:35:23.769Z,99091.98
2022-12-18T03:37:50.769Z,99100.66
2022-12-18T03:40:18.734Z,99102.18
2022-12-18T03:42:45.244Z,99107.40
2022-12-18T03:45:19.317Z,99111.63
2022-12-18T03:47:47.068Z,99115.45
2022-12-18T03:50:17.057Z,99123.55
2022-12-18T03:52:50.179Z,99123.45
2022-12-18T03:55:18.131Z,99126.97
2022-12-18T03:57:46.393Z,99126.05
2022-12-18T04:00:14.790Z,99128.50
2022-12-18T04:02:52.430Z,99129.92
2022-12-18T04:05:24.626Z,99131.91
2022-12-18T04:07:51.752Z,99132.48
2022-12-18T04:10:19.264Z,99140.29
2022-12-18T04:12:46.119Z,99142.09
2022-12-18T04:15:13.311Z,99142.67
2022-12-18T04:17:47.136Z,99153.30
2022-12-18T04:20:13.790Z,99158.38
2022-12-18T04:22:42.523Z,99163.42
2022-12-18T04:25:11.953Z,99164.21
2022-12-18T04:27:41.672Z,99163.77
2022-12-18T04:30:08.623Z,99169.00
2022-12-18T04:32:35.833Z,99173.20
2022-12-18T04:35:04.626Z,99174.77
2022-12-18T04:37:32.952Z,99175.98
2022-12-18T04:39:59.796Z,99178.31
2022-12-18T04:42:32.547Z,99178.31
2022-12-18T04:44:59.102Z,99181.17
2022-12-18T04:47:25.609Z,99184.43
2022-12-18T04:49:52.432Z,99184.40
2022-12-18T04:52:19.225Z,99183.41
2022-12-18T04:54:45.769Z,99183.39
2022-12-18T04:57:12.254Z,99194.30
2022-12-18T04:59:38.937Z,99194.21
2022-12-18T05:02:06.154Z,99202.68
2022-12-18T05:04:33.027Z,99206.96
2022-12-18T05:06:59.783Z,99212.36
2022-12-18T05:09:26.396Z,99217.30
2022-12-18T05:11:52.913Z,99220.23
2022-12-18T05:14:19.566Z,99220.21
2022-12-18T05:16:46.051Z,99221.22
2022-12-18T05:19:12.851Z,99230.39
2022-12-18T05:21:40.093Z,99233.63
2022-12-18T05:24:06.934Z,99235.48
2022-12-18T05:26:33.466Z,99246.27
2022-12-18T05:29:00.027Z,99247.30
2022-12-18T05:31:26.637Z,99251.92
2022-12-18T05:33:53.485Z,99250.73
2022-12-18T05:36:19.998Z,99251.56
2022-12-18T05:38:46.564Z,99252.86
2022-12-18T05:41:13.199Z,99256.73
2022-12-18T05:43:40.579Z,99268.91
2022-12-18T05:46:09.233Z,99270.19
2022-12-18T05:48:36.064Z,99274.95
2022-12-18T05:51:07.352Z,99282.85
2022-12-18T05:53:35.158Z,99289.27
2022-12-18T05:56:03.047Z,99291.02
2022-12-18T05:58:30.117Z,99293.58
2022-12-18T06:00:56.973Z,99297.05
2022-12-18T06:03:26.880Z,99298.84
2022-12-18T06:05:57.419Z,99304.01
2022-12-18T06:08:24.153Z,99302.39
2022-12-18T06:10:52.897Z,99302.36
2022-12-18T06:13:20.143Z,99307.39
2022-12-18T06:15:46.709Z,99315.63
2022-12-18T06:18:13.295Z,99320.56
2022-12-18T06:20:41.666Z,99323.77
2022-12-18T06:23:08.904Z,99325.98
2022-12-18T06:25:37.680Z,99330.43
2022-12-18T06:28:04.254Z,99339.03
2022-12-18T06:30:32.128Z,99342.91
2022-12-18T06:32:58.629Z,99344.34
2022-12-18T06:35:25.167Z,99341.73
2022-12-18T06:37:51.845Z,99347.33
2022-12-18T06:40:19.359Z,99356.25
2022-12-18T06:42:45.872Z,99361.48
2022-12-18T06:45:15.390Z,99365.91
2022-12-18T06:47:42.407Z,99378.08
2022-12-18T06:50:09.030Z,99382.50
2022-12-18T06:52:35.890Z,99390.29
2022-12-18T06:55:03.571Z,99392.31
2022-12-18T06:57:30.093Z,99390.92
2022-12-18T06:59:57.058Z,99390.48
2022-12-18T07:02:23.956Z,99395.95
2022-12-18T07:04:50.554Z,99398.07
2022-12-18T07:07:17.321Z,99405.50
2022-12-18T07:09:43.958Z,99408.61
2022-12-18T07:12:10.583Z,99414.80
2022-12-18T07:14:37.571Z,99419.08
2022-12-18T07:17:04.146Z,99419.22
2022-12-18T07:19:31.216Z,99426.87
2022-12-18T07:22:01.598Z,99424.98
2022-12-18T07:24:28.850Z,99424.98
2022-12-18T07:26:55.490Z,99430.77
2022-12-18T07:29:22.039Z,99436.13
2022-12-18T07:31:49.524Z,99438.48
2022-12-18T07:34:16.393Z,99432.89
2022-12-18T07:36:43.413Z,99435.11
2022-12-18T07:39:11.680Z,99434.64
2022-12-18T07:41:41.320Z,99436.89
2022-12-18T07:44:12.923Z,99443.62
2022-12-18T07:46:39.449Z,99445.20
2022-12-18T07:49:06.245Z,99443.31
2022-12-18T07:51:32.989Z,99444.44
2022-12-18T07:53:59.791Z,99446.98
2022-12-18T07:56:28.305Z,99453.36
2022-12-18T07:58:56.255Z,99453.70
2022-12-18T08:01:23.363Z,99464.17
2022-12-18T08:03:51.218Z,99466.33
2022-12-18T08:06:19.584Z,99474.79
2022-12-18T08:08:49.339Z,99478.46
2022-12-18T08:11:17.032Z,99485.25
2022-12-18T08:13:43.818Z,99488.23
2022-12-18T08:16:10.598Z,99488.98
2022-12-18T08:18:37.831Z,99493.95
2022-12-18T08:21:10.684Z,99496.30
2022-12-18T08:23:42.368Z,99501.48
2022-12-18T08:26:10.344Z,99499.92
2022-12-18T08:28:36.975Z,99509.04
2022-12-18T08:31:04.392Z,99510.35
2022-12-18T08:33:31.590Z,99520.00
2022-12-18T08:35:59.118Z,99518.63
2022-12-18T08:38:25.671Z,99524.17
2022-12-18T08:41:11.123Z,99527.92
2022-12-18T08:43:56.215Z,99524.16
2022-12-18T08:46:24.316Z,99527.46
2022-12-18T08:48:51.585Z,99527.05
2022-12-18T08:51:18.254Z,99526.17
2022-12-18T08:53:45.222Z,99521.16
2022-12-18T08:56:12.510Z,99518.78
2022-12-18T08:58:39.021Z,99522.12
2022-12-18T09:01:07.411Z,99520.30
2022-12-18T09:03:34.185Z,99516.61
2022-12-18T09:06:01.052Z,99524.29
2022-12-18T09:08:28.060Z,99528.95
2022-12-18T09:10:55.573Z,99535.48
2022-12-18T09:13:22.307Z,99535.25
2022-12-18T09:15:50.431Z,99531.14
2022-12-18T09:18:17.928Z,99531.51
2022-12-18T09:20:44.724Z,99528.46
2022-12-18T09:23:11.821Z,99530.27
2022-12-18T09:25:38.768Z,99532.73
2022-12-18T09:28:15.875Z,99535.30
2022-12-18T09:30:43.840Z,99535.80
2022-12-18T09:33:11.002Z,99538.21
2022-12-18T09:35:41.022Z,99542.27
2022-12-18T09:38:10.422Z,99540.73
2022-12-18T09:40:42.219Z,99544.83
2022-12-18T09:43:14.032Z,99542.39
2022-12-18T09:45:51.598Z,99540.63
2022-12-18T09:48:27.894Z,99540.61
2022-12-18T09:50:58.026Z,99537.16
2022-12-18T09:53:27.124Z,99540.64
2022-12-18T09:55:55.137Z,99546.35
2022-12-18T09:58:21.606Z,99547.25
2022-12-18T10:00:48.204Z,99548.25
2022-12-18T10:03:15.659Z,99551.99
2022-12-18T10:05:46.287Z,99548.16
2022-12-18T10:08:17.640Z,99548.80
2022-12-18T10:10:49.702Z,99552.33
2022-12-18T10:13:29.540Z,99550.90
2022-12-18T10:15:56.397Z,99548.99
2022-12-18T10:18:30.455Z,99551.89
2022-12-18T10:21:13.858Z,99549.33
2022-12-18T10:23:48.679Z,99551.38
2022-12-18T10:26:15.565Z,99552.88
2022-12-18T10:28:44.160Z,99555.49
2022-12-18T10:31:20.657Z,99550.36
2022-12-18T10:33:47.748Z,99547.06
2022-12-18T10:36:14.595Z,99550.45
2022-12-18T10:38:42.194Z,99556.19
2022-12-18T10:41:19.420Z,99559.20
2022-12-18T10:43:48.847Z,99556.40
2022-12-18T10:46:17.712Z,99556.52
2022-12-18T10:48:47.141Z,99556.84
2022-12-18T10:51:24.974Z,99561.09
2022-12-18T10:53:54.605Z,99566.73
2022-12-18T10:56:21.726Z,99564.38
2022-12-18T10:59:02.394Z,99563.71
2022-12-18T11:01:31.433Z,99560.23
2022-12-18T11:04:02.060Z,99558.63
2022-12-18T11:06:38.175Z,99557.97
2022-12-18T11:09:12.662Z,99561.72
2022-12-18T11:11:40.055Z,99560.95
2022-12-18T11:14:11.849Z,99561.14
2022-12-18T11:17:03.144Z,99565.70
2022-12-18T11:19:35.832Z,99564.31
2022-12-18T11:22:17.388Z,99562.30
2022-12-18T11:25:22.443Z,99562.77
2022-12-18T11:27:39.838Z,99561.66
2022-12-18T11:30:10.941Z,99566.27
2022-12-18T11:32:39.643Z,99566.36
2022-12-18T11:35:12.418Z,99561.80
2022-12-18T11:37:42.292Z,99559.06
2022-12-18T11:40:18.164Z,99560.24
2022-12-18T11:43:20.122Z,99567.48
2022-12-18T11:45:53.590Z,99571.81
2022-12-18T11:48:22.855Z,99569.39
2022-12-18T11:50:51.781Z,99572.06
2022-12-18T11:53:18.820Z,99569.65
2022-12-18T11:56:04.826Z,99569.19
2022-12-18T11:58:48.780Z,99571.95
2022-12-18T12:01:28.844Z,99573.27
2022-12-18T12:04:22.184Z,99576.57
2022-12-18T12:07:03.330Z,99575.83
2022-12-18T12:09:44.560Z,99580.14
2022-12-18T12:12:16.825Z,99585.14
2022-12-18T12:14:49.382Z,99584.89
2022-12-18T12:17:27.798Z,99583.55
2022-12-18T12:19:54.725Z,99585.69
2022-12-18T12:22:30.362Z,99584.65
2022-12-18T12:25:00.075Z,99580.19
2022-12-18T12:27:29.782Z,99574.86
2022-12-18T12:30:02.251Z,99579.35
2022-12-18T12:32:35.710Z,99583.60
2022-12-18T12:35:10.043Z,99583.45
2022-12-18T12:37:52.161Z,99586.59
2022-12-18T12:40:50.167Z,99592.67
2022-12-18T12:43:27.365Z,99597.18
2022-12-18T12:46:01.047Z,99603.19
2022-12-18T12:48:33.510Z,99597.02
2022-12-18T12:51:08.222Z,99595.06
2022-12-18T12:53:37.931Z,99601.62
2022-12-18T12:56:06.002Z,99607.39
2022-12-18T12:58:45.411Z,99612.21
2022-12-18T13:01:24.313Z,99613.70
2022-12-18T13:04:03.064Z,99612.70
2022-12-18T13:06:44.565Z,99611.75
2022-12-18T13:09:11.491Z,99611.53
2022-12-18T13:12:02.522Z,99615.52
2022-12-18T13:14:40.328Z,99620.33
2022-12-18T13:17:27.896Z,99624.95
2022-12-18T13:20:03.634Z,99628.15
2022-12-18T13:22:34.492Z,99633.23
2022-12-18T13:25:01.418Z,99642.95
2022-12-18T13:27:43.589Z,99648.80
2022-12-18T13:30:29.480Z,99644.61
2022-12-18T13:33:14.037Z,99647.64
2022-12-18T13:35:41.084Z,99651.61
2022-12-18T13:38:34.774Z,99647.23
2022-12-18T13:41:04.651Z,99644.38
2022-12-18T13:43:33.939Z,99643.84
2022-12-18T13:46:18.554Z,99641.50
2022-12-18T13:48:57.144Z,99641.16
2022-12-18T13:51:24.530Z,99642.66
2022-12-18T13:53:54.082Z,99643.91
2022-12-18T13:56:29.425Z,99641.52
2022-12-18T13:59:13.159Z,99647.89
2022-12-18T14:01:53.920Z,99648.33
2022-12-18T14:04:23.429Z,99648.48
2022-12-18T14:06:51.969Z,99647.38
2022-12-18T14:09:22.126Z,99647.52
2022-12-18T14:11:49.899Z,99652.23
2022-12-18T14:14:17.661Z,99659.04
2022-12-18T14:16:44.709Z,99657.91
2022-12-18T14:19:17.363Z,99656.16
2022-12-18T14:21:48.556Z,99660.41
2022-12-18T14:24:19.514Z,99660.90
2022-12-18T14:26:47.481Z,99663.52
2022-12-18T14:29:17.756Z,99666.13
2022-12-18T14:31:44.696Z,99668.01
2022-12-18T14:34:17.505Z,99675.02
2022-12-18T14:36:52.584Z,99678.71
2022-12-18T14:39:19.761Z,99684.19
2022-12-18T14:41:48.962Z,99687.89
2022-12-18T14:44:16.003Z,99694.76
2022-12-18T14:46:46.678Z,99696.22
2022-12-18T14:49:25.189Z,99698.23
2022-12-18T14:52:02.509Z,99702.50
2022-12-18T14:54:30.145Z,99704.95
2022-12-18T14:56:59.855Z,99709.20
2022-12-18T14:59:27.211Z,99715.11
2022-12-18T15:01:54.179Z,99719.90
2022-12-18T15:04:42.500Z,99727.24
2022-12-18T15:07:11.313Z,99722.88
2022-12-18T15:09:38.998Z,99725.32
2022-12-18T15:12:05.948Z,99730.58
2022-12-18T15:14:39.645Z,99736.39
2022-12-18T15:17:20.241Z,99736.94
2022-12-18T15:19:48.565Z,99740.94
2022-12-18T15:22:19.009Z,99745.17
2022-12-18T15:24:45.702Z,99754.50
2022-12-18T15:27:25.020Z,99759.59
2022-12-18T15:30:17.485Z,99765.23
2022-12-18T15:32:45.387Z,99772.48
2022-12-18T15:35:30.427Z,99771.41
2022-12-18T15:37:57.190Z,99777.80
2022-12-18T15:40:24.773Z,99782.77
2022-12-18T15:43:12.690Z,99785.11
2022-12-18T15:45:39.989Z,99781.24
2022-12-18T15:48:20.726Z,99785.15
2022-12-18T15:50:47.752Z,99785.48
2022-12-18T15:53:14.710Z,99788.98
2022-12-18T15:56:01.375Z,99789.81
2022-12-18T15:58:28.349Z,99789.63
2022-12-18T16:00:56.526Z,99793.28
2022-12-18T16:03:23.033Z,99792.48
2022-12-18T16:05:50.201Z,99792.77
2022-12-18T16:08:16.882Z,99792.34
2022-12-18T16:10:44.297Z,99796.79
2022-12-18T16:13:12.111Z,99799.82
2022-12-18T16:15:39.098Z,99804.91
2022-12-18T16:18:06.047Z,99804.61
2022-12-18T16:20:33.062Z,99809.37
2022-12-18T16:23:00.224Z,99811.67
2022-12-18T16:25:28.589Z,99816.73
2022-12-18T16:27:56.578Z,99815.70
2022-12-18T16:30:25.826Z,99817.48
2022-12-18T16:32:57.440Z,99818.04
2022-12-18T16:35:25.375Z,99812.92
2022-12-18T16:37:52.453Z,99815.08
2022-12-18T16:40:19.319Z,99817.42
2022-12-18T16:42:46.439Z,99817.38
2022-12-18T16:45:15.230Z,99816.80
2022-12-18T16:47:42.254Z,99822.98
2022-12-18T16:50:09.535Z,99822.55
2022-12-18T16:52:36.499Z,99821.85
2022-12-18T16:55:03.821Z,99823.87
2022-12-18T16:57:30.768Z,99832.17
2022-12-18T17:00:04.397Z,99833.19
2022-12-18T17:02:32.945Z,99833.50
2022-12-18T17:05:00.511Z,99831.01
2022-12-18T17:07:27.967Z,99835.09
2022-12-18T17:09:55.548Z,99838.45
2022-12-18T17:12:22.808Z,99844.14
2022-12-18T17:14:50.014Z,99848.37
2022-12-18T17:17:22.321Z,99857.13
2022-12-18T17:19:50.993Z,99863.85
2022-12-18T17:22:18.538Z,99866.53
2022-12-18T17:24:46.503Z,99865.86
2022-12-18T17:27:14.476Z,99864.55
2022-12-18T17:29:47.212Z,99863.63
2022-12-18T17:32:15.413Z,99861.89
2022-12-18T17:34:42.098Z,99864.30
2022-12-18T17:37:08.625Z,99866.92
2022-12-18T17:39:35.340Z,99873.11
2022-12-18T17:42:01.943Z,99876.00
2022-12-18T17:44:29.085Z,99879.98
2022-12-18T17:46:55.678Z,99879.75
2022-12-18T17:49:22.597Z,99880.21
2022-12-18T17:51:49.539Z,99884.13
2022-12-18T17:54:16.728Z,99887.39
2022-12-18T17:56:44.248Z,99886.59
2022-12-18T17:59:11.911Z,99881.83
2022-12-18T18:01:44.114Z,99882.61
2022-12-18T18:04:11.883Z,99885.73
2022-12-18T18:06:39.291Z,99880.70
2022-12-18T18:09:15.278Z,99884.54
2022-12-18T18:12:03.001Z,99884.39
2022-12-18T18:14:30.240Z,99888.34
2022-12-18T18:16:57.134Z,99891.12
2022-12-18T18:19:25.315Z,99893.38
2022-12-18T18:21:52.952Z,99892.73
2022-12-18T18:24:22.665Z,99900.19
2022-12-18T18:26:49.318Z,99901.34
2022-12-18T18:29:18.136Z,99909.75
2022-12-18T18:31:45.224Z,99914.61
2022-12-18T18:34:16.117Z,99915.05
2022-12-18T18:36:42.990Z,99912.75
2022-12-18T18:39:09.521Z,99909.51
2022-12-18T18:41:37.491Z,99908.79
2022-12-18T18:44:04.582Z,99913.77
2022-12-18T18:46:31.144Z,99917.47
2022-12-18T18:48:57.782Z,99914.20
2022-12-18T18:51:24.519Z,99918.52
2022-12-18T18:53:54.743Z,99913.23
2022-12-18T18:59:09.211Z,99914.09
2022-12-18T19:01:35.850Z,99916.38
2022-12-18T19:04:04.959Z,99918.34
2022-12-18T19:06:31.564Z,99914.60
2022-12-18T19:09:01.190Z,99914.66
2022-12-18T19:11:46.762Z,99918.08
2022-12-18T19:14:14.398Z,99923.52
2022-12-18T19:16:41.418Z,99926.99
2022-12-18T19:19:08.137Z,99933.70
2022-12-18T19:21:37.007Z,99936.17
2022-12-18T19:24:04.805Z,99939.84
2022-12-18T19:26:31.746Z,99935.41
2022-12-18T19:29:02.801Z,99931.19
2022-12-18T19:31:35.166Z,99934.18
2022-12-18T19:34:04.309Z,99937.38
2022-12-18T19:36:31.565Z,99941.13
2022-12-18T19:38:59.836Z,99935.94
2022-12-18T19:41:27.581Z,99934.83
2022-12-18T19:43:58.045Z,99936.89
2022-12-18T19:46:24.815Z,99939.67
2022-12-18T19:48:51.920Z,99938.60
2022-12-18T19:51:26.790Z,99937.45
2022-12-18T19:53:58.608Z,99940.33
2022-12-18T19:56:27.593Z,99945.17
2022-12-18T19:58:54.614Z,99947.23
2022-12-18T20:01:22.287Z,99945.98
2022-12-18T20:03:52.433Z,99943.98
2022-12-18T20:06:20.413Z,99944.27
2022-12-18T20:08:46.931Z,99937.24
2022-12-18T20:11:13.453Z,99934.09
2022-12-18T20:13:40.387Z,99933.85
2022-12-18T20:16:07.386Z,99934.48
2022-12-18T20:18:34.331Z,99936.10
2022-12-18T20:21:01.121Z,99935.83
2022-12-18T20:23:30.318Z,99939.32
2022-12-18T20:25:59.370Z,99945.83
2022-12-18T20:28:26.176Z,99954.50
2022-12-18T20:30:58.937Z,99954.11
2022-12-18T20:33:25.698Z,99955.68
2022-12-18T20:35:52.409Z,99957.70
2022-12-18T20:38:19.763Z,99963.89
2022-12-18T20:40:47.128Z,99966.51
2022-12-18T20:43:17.103Z,99962.56
2022-12-18T20:45:44.099Z,99956.20
2022-12-18T20:48:12.681Z,99962.11
2022-12-18T20:50:39.502Z,99966.30
2022-12-18T20:53:06.042Z,99961.06
2022-12-18T20:55:32.641Z,99959.26
2022-12-18T20:57:59.769Z,99958.92
2022-12-18T21:00:26.340Z,99963.80
2022-12-18T21:02:53.413Z,99965.72
2022-12-18T21:05:20.096Z,99961.30
2022-12-18T21:07:46.885Z,99957.79
2022-12-18T21:10:13.439Z,99956.20
2022-12-18T21:12:58.719Z,99962.77
2022-12-18T21:15:29.054Z,99969.61
2022-12-18T21:17:55.691Z,99972.09
2022-12-18T21:20:22.589Z,99968.23
2022-12-18T21:22:49.747Z,99968.27
2022-12-18T21:25:16.675Z,99972.74
2022-12-18T21:27:43.507Z,99979.80
2022-12-18T21:30:10.382Z,99987.23
2022-12-18T21:32:37.247Z,99990.88
2022-12-18T21:35:04.008Z,99992.95
2022-12-18T21:37:30.730Z,99990.41
2022-12-18T21:39:57.315Z,99992.97
2022-12-18T21:42:42.792Z,99998.12
2022-12-18T21:45:11.517Z,100002.04
2022-12-18T21:47:38.067Z,100008.85
2022-12-18T21:50:05.267Z,100008.30
2022-12-18T21:52:32.913Z,100012.00
2022-12-18T21:55:04.813Z,100006.64
2022-12-18T21:57:36.028Z,100008.47
2022-12-18T22:00:03.495Z,100009.64
2022-12-18T22:02:38.783Z,100008.13
2022-12-18T22:05:05.868Z,100011.79
2022-12-18T22:07:32.719Z,100006.13
2022-12-18T22:09:59.351Z,100008.29
2022-12-18T22:12:41.623Z,100004.75
2022-12-18T22:15:13.186Z,100000.32
2022-12-18T22:17:49.811Z,99994.02
2022-12-18T22:20:16.866Z,99998.86
2022-12-18T22:22:43.576Z,100003.94
2022-12-18T22:25:10.391Z,100006.21
2022-12-18T22:27:37.314Z,100007.09
2022-12-18T22:30:04.800Z,100007.21
2022-12-18T22:32:35.195Z,100006.92
2022-12-18T22:35:09.225Z,100006.41
2022-12-18T22:37:39.658Z,100011.98
2022-12-18T22:40:07.463Z,100009.63
2022-12-18T22:42:35.293Z,100003.70
2022-12-18T22:45:01.844Z,100002.76
2022-12-18T22:47:30.345Z,100007.39
2022-12-18T22:49:57.668Z,100004.86
2022-12-18T22:52:24.850Z,100000.50
2022-12-18T22:54:53.741Z,100003.38
2022-12-18T22:57:21.249Z,100002.76
2022-12-18T22:59:48.711Z,100007.88
2022-12-18T23:02:17.019Z,100008.69
2022-12-18T23:04:44.374Z,100012.64
2022-12-18T23:07:11.099Z,100015.67
2022-12-18T23:09:39.606Z,100010.05
2022-12-18T23:12:06.299Z,100007.67
2022-12-18T23:14:33.030Z,100000.22
2022-12-18T23:16:59.536Z,100003.53
2022-12-18T23:19:26.085Z,99994.95
2022-12-18T23:21:52.727Z,99996.25
2022-12-18T23:24:21.428Z,100001.98
2022-12-18T23:26:47.935Z,100006.95
2022-12-18T23:29:14.687Z,100007.95
2022-12-18T23:31:41.581Z,100015.26
2022-12-18T23:34:11.241Z,100020.37
2022-12-18T23:36:45.577Z,100019.31
2022-12-18T23:39:24.385Z,100019.16
2022-12-18T23:41:57.352Z,100019.52
2022-12-18T23:44:24.369Z,100026.61
2022-12-18T23:46:51.057Z,100025.00
2022-12-18T23:49:17.881Z,100030.29
2022-12-18T23:51:44.684Z,100029.35
2022-12-18T23:54:11.262Z,100028.02
2022-12-18T23:56:38.237Z,100032.70
2022-12-18T23:59:04.846Z,100038.15
